Home   Weather   USA   New Orleans   Past weeks
Flag for USA

Past Weather in New Orleans, Louisiana, USA — February 2016

Currently: 77 °F. Passing clouds. (Weather station: Lakefront Airport, USA). See more current weather

February 2016 Weather in New Orleans — Graph

°F

High & Low Weather Summary for February 2016

 TemperatureHumidityPressure
High77 °F (Feb 2, 11:53 am)100% (Feb 1, 1:53 am)30.51 "Hg (Feb 1, 1:53 am)
Low41 °F (Feb 5, 5:53 am)23% (Feb 27, 4:53 pm)29.43 "Hg (Feb 23, 4:53 pm)
Average58 °F68%30.12 "Hg
* Reported Feb 1 12:00 am — Feb 29 11:53 pm, New Orleans. Weather by CustomWeather, © 2022

Note: Actual official high and low records may vary slightly from our data, if they occured in-between our weather recording intervals... More about our weather records

New Orleans Weather History for February 1, 2016

Scroll right to see more
 ConditionsComfort  
Time TempWeatherWind HumidityBarometerVisibility
12:00 am
Mon, Feb 1
64 °FFog.5 mph97%29.94 "Hg6 mi
12:53 am65 °FFog.7 mph97%29.91 "Hg3 mi
1:03 am65 °FFog.7 mph97%29.94 "Hg2 mi
1:53 am65 °FFog.6 mph100%29.91 "Hg1 mi
2:53 am64 °FFog.3 mph100%29.90 "Hg1 mi
3:01 am63 °FFog.3 mph100%29.93 "Hg0 mi
3:53 am65 °FFog.5 mph97%29.90 "Hg0 mi
4:53 am64 °FFog.3 mph97%29.91 "Hg1 mi
5:04 am62 °FFog.5 mph100%29.94 "Hg0 mi
5:53 am63 °FFog.3 mph100%29.93 "Hg1 mi
6:53 am64 °FFog.3 mph97%29.94 "Hg0 mi
7:53 am64 °FFog.No wind100%29.95 "Hg0 mi
8:53 am65 °FFog.5 mph100%29.96 "Hg0 mi
9:53 am66 °FFog.6 mph100%29.96 "Hg1 mi
11:00 am69 °FFog.5 mph93%29.98 "Hg6 mi
11:53 am69 °FFog.3 mph90%29.93 "Hg6 mi
12:53 pm65 °FCloudy.6 mph87%29.89 "Hg10 mi
1:53 pm63 °FCloudy.8 mph87%29.87 "Hg9 mi
2:53 pm75 °FBroken clouds.15 mph74%29.86 "Hg10 mi
3:53 pm75 °FPassing clouds.12 mph74%29.85 "Hg10 mi
4:53 pm74 °FScattered clouds.12 mph76%29.85 "Hg10 mi
5:53 pm70 °FPassing clouds.10 mph87%29.84 "Hg10 mi
6:53 pm68 °FOvercast.10 mph90%29.85 "Hg10 mi
7:53 pm68 °FPassing clouds.10 mph87%29.84 "Hg10 mi
8:53 pm68 °FOvercast.10 mph87%29.84 "Hg10 mi
9:53 pm68 °FMostly cloudy.14 mph87%29.84 "Hg10 mi
10:53 pm68 °FOvercast.15 mph90%29.83 "Hg10 mi
11:53 pm69 °FLow clouds.15 mph90%29.83 "Hg10 mi
Weather by CustomWeather, © 2022

See weather overview